Sea Change II — DG3448 — position and weather

sailwx.info

Track history (hours):
 
Tides and Currents Weather Stations Pressure Air Temp Water Temp Dewpoint Dewpoint Depression Visibility Wind Speed Wind Dir Waves Ship Positions

Sea Change II

Last reported at 2017-Nov-19 15:12 UTC. Time now 2017-Nov-22 11:15 UTC.
Position N 27°59' W 015°20'.

Length 17 m; draft 2.8 m.

Type: Sailing vessel. MMSI: 211490860.

Date/timePositionNaut miles runAvg speedWind from/ knotsBaromVisibWave heightAir tempDewpointWater temp
2017-Nov-19 15:12N 27°59' W 015°20'1 4.5
2017-Nov-19 14:55N 28°00' W 015°21'2 4.1
2017-Nov-19 14:30N 28°02' W 015°21'2 4.2
2017-Nov-19 14:00N 28°04' W 015°22'2 3.4
2017-Nov-19 13:30N 28°05' W 015°23'2 3.2
2017-Nov-19 13:00N 28°07' W 015°24'1 2.5
2017-Nov-19 12:30N 28°07' W 015°25'0 0.0
2017-Nov-18 13:49N 28°08' W 015°26'0 0.0
2017-Nov-17 17:18N 28°08' W 015°26'0 0.0
2017-Nov-17 16:18N 28°08' W 015°26'0 0.5
2017-Nov-17 15:53N 28°08' W 015°25'0 0.0
2017-Nov-17 15:23N 28°08' W 015°25'1 1.4
2017-Nov-17 15:00N 28°07' W 015°25'2 3.0
2017-Nov-17 14:30N 28°06' W 015°24'1 1.7
2017-Nov-17 14:00N 28°07' W 015°24'1 1.3
2017-Nov-17 13:30N 28°07' W 015°25'1 1.6
2017-Nov-17 12:54N 28°08' W 015°26'0 0.0
2017-Nov-17 12:24N 28°08' W 015°26'0 0.0
2017-Nov-17 11:54N 28°08' W 015°26'0 0.0
2017-Nov-17 11:24N 28°08' W 015°26'0 0.0
2017-Nov-15 16:33N 28°08' W 015°26'0 0.0
2017-Nov-15 16:24N 28°08' W 015°26'0 0.0
2017-Nov-15 15:50N 28°08' W 015°26'0 0.0
2017-Nov-15 09:33N 28°08' W 015°26'0 0.1
2017-Nov-15 09:30N 28°08' W 015°26'0 0.0
2017-Nov-14 12:53N 28°08' W 015°26'0 0.0
2017-Nov-14 12:26N 28°08' W 015°26'  
2017-Nov-10 15:55N 28°08' W 015°26'1 2.4
2017-Nov-10 15:24N 28°07' W 015°24'1 2.6
2017-Nov-10 15:00N 28°07' W 015°23'2 4.9
2017-Nov-10 14:30N 28°05' W 015°21'1 2.7
2017-Nov-10 14:00N 28°07' W 015°22'3 5.9
2017-Nov-10 13:30N 28°09' W 015°23'2 4.1
2017-Nov-10 13:00N 28°07' W 015°23'1 2.3
2017-Nov-10 12:30N 28°07' W 015°22'0 0.7
2017-Nov-10 12:00N 28°06' W 015°22'2 3.5
2017-Nov-10 11:30N 28°07' W 015°24'  
Track history (hours):
 
Tides and Currents Weather Stations Pressure Air Temp Water Temp Dewpoint Dewpoint Depression Visibility Wind Speed Wind Dir Waves Ship Positions

Sea Change II

Last reported at 2017-Nov-19 15:12 UTC. Time now 2017-Nov-22 11:15 UTC.
Position N 27°59' W 015°20'.

Length 17 m; draft 2.8 m.

Type: Sailing vessel. MMSI: 211490860.

Date/timePositionNaut miles runAvg speedWind from/ knotsBaromVisibWave heightAir tempDewpointWater temp
2017-Nov-19 15:12N 27°59' W 015°20'1 4.5
2017-Nov-19 14:55N 28°00' W 015°21'2 4.1
2017-Nov-19 14:30N 28°02' W 015°21'2 4.2
2017-Nov-19 14:00N 28°04' W 015°22'2 3.4
2017-Nov-19 13:30N 28°05' W 015°23'2 3.2
2017-Nov-19 13:00N 28°07' W 015°24'1 2.5
2017-Nov-19 12:30N 28°07' W 015°25'0 0.0
2017-Nov-18 13:49N 28°08' W 015°26'0 0.0
2017-Nov-17 17:18N 28°08' W 015°26'0 0.0
2017-Nov-17 16:18N 28°08' W 015°26'0 0.5
2017-Nov-17 15:53N 28°08' W 015°25'0 0.0
2017-Nov-17 15:23N 28°08' W 015°25'1 1.4
2017-Nov-17 15:00N 28°07' W 015°25'2 3.0
2017-Nov-17 14:30N 28°06' W 015°24'1 1.7
2017-Nov-17 14:00N 28°07' W 015°24'1 1.3
2017-Nov-17 13:30N 28°07' W 015°25'1 1.6
2017-Nov-17 12:54N 28°08' W 015°26'0 0.0
2017-Nov-17 12:24N 28°08' W 015°26'0 0.0
2017-Nov-17 11:54N 28°08' W 015°26'0 0.0
2017-Nov-17 11:24N 28°08' W 015°26'0 0.0
2017-Nov-15 16:33N 28°08' W 015°26'0 0.0
2017-Nov-15 16:24N 28°08' W 015°26'0 0.0
2017-Nov-15 15:50N 28°08' W 015°26'0 0.0
2017-Nov-15 09:33N 28°08' W 015°26'0 0.1
2017-Nov-15 09:30N 28°08' W 015°26'0 0.0
2017-Nov-14 12:53N 28°08' W 015°26'0 0.0
2017-Nov-14 12:26N 28°08' W 015°26'  
2017-Nov-10 15:55N 28°08' W 015°26'1 2.4
2017-Nov-10 15:24N 28°07' W 015°24'1 2.6
2017-Nov-10 15:00N 28°07' W 015°23'2 4.9
2017-Nov-10 14:30N 28°05' W 015°21'1 2.7
2017-Nov-10 14:00N 28°07' W 015°22'3 5.9
2017-Nov-10 13:30N 28°09' W 015°23'2 4.1
2017-Nov-10 13:00N 28°07' W 015°23'1 2.3
2017-Nov-10 12:30N 28°07' W 015°22'0 0.7
2017-Nov-10 12:00N 28°06' W 015°22'2 3.5
2017-Nov-10 11:30N 28°07' W 015°24'  

Dump ship's entire track history